Flight Track Log - Related Links

Times and Time Zones

All times are in EDT time to prevent confusion due to time zone crossing. See the GJS6256 flight status page for this flight to view local times or setup timezone preferences in your user account.

Time Position Orientation Groundspeed Altitude Reporting Facility
EDT Latitude Longitude Course Direction KTS MPH feet Rate Location/Type
Sun 12:56:27 PM 42.9500 -87.8833 90° East 147 169 1,400  Level KMKE
Sun 12:57:15 PM 42.9500 -87.8333 90° East 182 209 3,000 1,683 Climbing KMKE
Sun 12:57:49 PM 42.9219 -87.8422 193° South 218 251 3,700 2,250 Climbing Chicago Center
Sun 12:58:51 PM 42.8828 -87.9272 238° Southwest 234 269 6,600 2,419 Climbing Chicago Center
Sun 12:59:53 PM 42.8536 -88.0064 243° Southwest 256 295 8,700 2,323 Climbing Chicago Center
Sun 01:00:55 PM 42.7728 -88.0489 201° Southwest 296 341 11,400 2,371 Climbing Chicago Center
Sun 01:01:57 PM 42.6889 -88.0378 174° South 303 349 13,600 1,597 Climbing Chicago Center
Sun 01:02:59 PM 42.5944 -88.0256 175° South 349 402 14,700 1,258 Climbing Chicago Center
Sun 01:04:01 PM 42.5006 -87.9675 155° Southeast 384 442 16,200 1,500 Climbing Chicago Center
Sun 01:05:03 PM 42.4122 -87.8819 144° Southeast 393 452 17,800 1,728 Climbing Chicago Center
Sun 01:06:06 PM 42.3033 -87.7772 145° Southeast 400 460 19,800 1,584 Climbing Chicago Center
Sun 01:07:08 PM 42.2067 -87.6989 149° Southeast 407 468 21,100 1,210 Climbing Chicago Center
Sun 01:08:10 PM 42.1042 -87.6167 149° Southeast 425 489 22,300 1,161 Climbing Chicago Center
Sun 01:09:12 PM 42.0014 -87.5319 149° Southeast 433 498 23,500 1,161 Climbing Chicago Center
Sun 01:10:14 PM 41.9575 -87.3861 112° Southeast 442 509 24,700 1,113 Climbing Chicago Center
Sun 01:11:16 PM 41.9483 -87.2233 94° East 438 504 25,800 1,016 Climbing Chicago Center
Sun 01:12:18 PM 41.9253 -87.0244 99° East 457 526 26,800 919 Climbing Chicago Center
Sun 01:13:20 PM 41.8858 -86.8592 108° East 466 536 27,700 871 Climbing Chicago Center
Sun 01:14:22 PM 41.8467 -86.6911 107° East 472 543 28,600 774 Climbing Chicago Center
Sun 01:15:24 PM 41.8103 -86.5286 107° East 481 554 29,300 726 Climbing Chicago Center
Sun 01:16:26 PM 41.8072 -86.3506 91° East 480 552 30,100 871 Climbing Chicago Center
Sun 01:17:28 PM 41.8061 -86.1342 90° East 485 558 31,100 871 Climbing Chicago Center
Sun 01:18:30 PM 41.8044 -85.9511 91° East 490 564 31,900 768 Climbing Chicago Center
Sun 01:19:33 PM 41.8028 -85.7681 91° East 491 565 32,700 528 Climbing Chicago Center
Sun 01:20:35 PM 41.8017 -85.5842 90° East 490 564 33,000 145 Climbing Chicago Center
Sun 01:21:37 PM 41.7992 -85.3972 91° East 492 566 33,000  Level Chicago Center
Sun 01:22:39 PM 41.7961 -85.2150 91° East 479 551 33,000  Level Chicago Center
Sun 01:23:41 PM 41.7922 -85.0339 92° East 482 555 33,000  Level Chicago Center
Sun 01:24:43 PM 41.7883 -84.8528 92° East 488 562 33,000  Level Chicago Center
Sun 01:25:45 PM 41.7836 -84.6406 92° East 478 550 33,000  Level Chicago Center
Sun 01:26:47 PM 41.7786 -84.4633 92° East 477 549 33,000  Level Chicago Center
Sun 01:27:49 PM 41.7764 -84.2839 91° East 481 554 33,000  Level Chicago Center
Sun 01:28:51 PM 41.7775 -84.1036 89° East 484 557 33,000  Level Chicago Center
Sun 01:29:51 PM 41.7722 -83.9050 92° East 481 554 33,000  Level Cleveland Center
Sun 01:30:51 PM 41.7689 -83.7236 91° East 481 554 33,000  Level Cleveland Center
Sun 01:31:51 PM 41.7653 -83.5425 91° East 481 554 33,000  Level Cleveland Center
Sun 01:32:51 PM 41.7492 -83.3581 97° East 486 559 33,000  Level Cleveland Center
Sun 01:33:51 PM 41.7306 -83.1764 98° East 491 565 33,000  Level Cleveland Center
Sun 01:34:51 PM 41.7136 -82.9950 97° East 491 565 33,000  Level Cleveland Center
Sun 01:35:51 PM 41.6964 -82.8136 97° East 491 565 33,000  Level Cleveland Center
Sun 01:36:51 PM 41.6769 -82.6347 98° East 486 559 33,000  Level Cleveland Center
Sun 01:37:51 PM 41.6592 -82.4564 98° East 486 559 33,000  Level Cleveland Center
Sun 01:38:51 PM 41.6428 -82.2919 98° East 486 559 33,000  Level Cleveland Center
Sun 01:39:51 PM 41.6244 -82.1136 98° East 486 559 33,000  Level Cleveland Center
Sun 01:40:51 PM 41.6039 -81.9300 98° East 491 565 33,000  Level Cleveland Center
Sun 01:41:51 PM 41.5831 -81.7325 98° East 491 565 33,000  Level Cleveland Center
Sun 01:42:51 PM 41.5619 -81.5461 99° East 491 565 33,000  Level Cleveland Center
Sun 01:43:51 PM 41.5403 -81.3656 99° East 496 571 33,000  Level Cleveland Center
Sun 01:44:51 PM 41.5186 -81.1850 99° East 496 571 33,000  Level Cleveland Center
Sun 01:45:51 PM 41.5025 -81.0211 97° East 496 571 33,000  Level Cleveland Center
Sun 01:46:51 PM 41.4864 -80.8408 97° East 491 565 33,000  Level Cleveland Center
Sun 01:47:51 PM 41.4722 -80.6608 96° East 491 565 33,000  Level Cleveland Center
Sun 01:48:51 PM 41.4556 -80.4806 97° East 491 565 33,000  Level Cleveland Center
Sun 01:49:51 PM 41.4406 -80.3006 96° East 491 565 33,000  Level Cleveland Center
Sun 01:50:51 PM 41.4233 -80.1206 97° East 491 565 33,000  Level Cleveland Center
Sun 01:51:51 PM 41.4058 -79.9464 98° East 486 559 33,000  Level Cleveland Center
Sun 01:52:51 PM 41.3858 -79.7667 98° East 486 559 33,000  Level Cleveland Center
Sun 01:54:00 PM 41.3664 -79.5879 98° East  Level FlightAware Approximate
Sun 01:54:51 PM 41.3536 -79.4075 98° East 486 559 33,000  Level Cleveland Center
Sun 01:55:51 PM 41.3331 -79.2336 99° East 480 552 33,000  Level Cleveland Center
Sun 01:56:51 PM 41.3161 -79.0572 97° East 480 552 33,000  Level Cleveland Center
Sun 01:57:51 PM 41.2969 -78.8806 98° East 480 552 33,000  Level Cleveland Center
Sun 01:58:51 PM 41.2775 -78.7017 98° East 485 558 33,000  Level Cleveland Center
Sun 02:01:15 PM 41.2319 -78.2783 98° East 476 548 33,000  Level New York Center
Sun 02:02:15 PM 41.2094 -78.1019 100° East 476 548 33,000  Level New York Center
Sun 02:03:15 PM 41.1889 -77.9289 99° East 481 554 33,000 -250 Level New York Center
Sun 02:04:15 PM 41.1661 -77.7528 100° East 481 554 32,500 -900 Descending New York Center
Sun 02:05:15 PM 41.1431 -77.5739 100° East 481 554 31,200 -1,350 Descending New York Center
Sun 02:06:15 PM 41.1217 -77.3983 99° East 481 554 29,800 -1,550 Descending New York Center
Sun 02:07:15 PM 41.0950 -77.2056 100° East 486 559 28,100 -1,650 Descending New York Center
Sun 02:08:15 PM 41.0667 -77.0322 102° East 486 559 26,500 -1,600 Descending New York Center
Sun 02:09:15 PM 41.0358 -76.8669 104° East 475 547 24,900 -1,600 Descending New York Center
Sun 02:10:15 PM 41.0064 -76.7075 104° East 459 528 23,300 -1,550 Descending New York Center
Sun 02:11:15 PM 40.9511 -76.5572 116° Southeast 448 516 21,800 -1,550 Descending New York Center
Sun 02:12:15 PM 40.9019 -76.4131 114° Southeast 442 509 20,200 -1,600 Descending New York Center
Sun 02:13:15 PM 40.8856 -76.2744 99° East 426 490 18,600 -1,600 Descending New York Center
Sun 02:14:15 PM 40.8611 -76.1242 102° East 421 484 17,000 -1,650 Descending New York Center
Sun 02:15:15 PM 40.8350 -75.9631 102° East 410 472 15,300 -1,650 Descending New York Center
Sun 02:16:15 PM 40.8119 -75.8214 102° East 399 459 13,700 -1,150 Descending New York Center
Sun 02:17:15 PM 40.7864 -75.6881 104° East 382 440 13,000 -350 Descending New York Center
Sun 02:18:15 PM 40.7558 -75.5678 109° East 382 440 13,000  Level New York Center
Sun 02:19:15 PM 40.7183 -75.4147 108° East 394 453 13,000 -350 Level New York Center
Sun 02:20:15 PM 40.6731 -75.2911 116° Southeast 387 445 12,300 -850 Descending New York Center
Sun 02:21:15 PM 40.6314 -75.1792 116° Southeast 363 418 11,300 -950 Descending New York Center
Sun 02:22:15 PM 40.5975 -75.0839 115° Southeast 327 376 10,400 -600 Descending New York Center
Sun 02:23:15 PM 40.5558 -74.9639 115° Southeast 322 371 10,100 -214 Descending New York Center
Sun 02:24:07 PM 40.5333 -74.8667 107° East 319 367 10,000 -51 Descending New York TRACON
Sun 02:25:13 PM 40.5000 -74.7500 111° Southeast 321 369 10,000 -350 Level New York TRACON
Sun 02:26:07 PM 40.4667 -74.6500 114° Southeast 320 368 9,300 -526 Descending New York TRACON
Sun 02:27:07 PM 40.4167 -74.5500 123° Southeast 313 360 9,000 -250 Descending New York TRACON
Sun 02:28:07 PM 40.3667 -74.4500 123° Southeast 315 362 8,800 -700 Descending New York TRACON
Sun 02:29:07 PM 40.3667 -74.3500 90° East 302 348 7,600 -900 Descending New York TRACON
Sun 02:30:07 PM 40.4000 -74.2500 66° East 274 315 7,000 -476 Descending New York TRACON
Sun 02:31:13 PM 40.4667 -74.1833 37° Northeast 280 322 6,600 -952 Descending New York TRACON
Sun 02:32:13 PM 40.5333 -74.1333 30° Northeast 271 312 5,000 -1,450 Descending New York TRACON
Sun 02:33:13 PM 40.5833 -74.0667 45° Northeast 257 296 3,700 -1,050 Descending New York TRACON
Sun 02:34:13 PM 40.6333 -74.0167 37° Northeast 256 295 2,900 -600 Descending New York TRACON
Sun 02:35:13 PM 40.6833 -73.9667 37° Northeast 199 229 2,500 -350 Descending New York TRACON
Sun 02:36:13 PM 40.7167 -73.9167 49° Northeast 187 215 2,200 -684 Descending New York TRACON
Sun 02:37:07 PM 40.7333 -73.8667 66° East 167 192 1,200 -947 Descending New York TRACON
Sun 02:38:07 PM 40.7667 -73.8333 37° Northeast 141 162 400 -800 Descending New York TRACON
Sun 02:40:00 PM 40.7667 -73.8667 30° Northeast  Level FlightAware Approximate
Sun 02:47:00 PM 40.7772 -73.8726 30° Northeast  Level Estimated
Sun 02:48:00 PM 40.7772 -73.8726 30° Northeast  Level Estimated

Login

Don't have an account? Register now (free) for customized features, flight alerts, and more!